Oban — PDWJ — position and weather

sailwx.info

Track history (hours):
 
Tides and Currents Weather Stations Pressure Air Temp Water Temp Dewpoint Dewpoint Depression Visibility Wind Speed Wind Dir Waves Ship Positions

Oban

Last reported at 2017-Aug-22 22:30 UTC. Time now 2017-Aug-22 22:38 UTC.
Position N 54°53' E 010°25'.

Length 39 m; draft 2.8 m.

Type: Sailing vessel. MMSI: 246085000.

Date/timePositionNaut miles runAvg speedWind from/ knotsBaromVisibWave heightAir tempDewpointWater temp
2017-Aug-22 22:30N 54°53' E 010°25'0 0.0
2017-Aug-22 22:01N 54°53' E 010°25'0 0.0
2017-Aug-22 21:30N 54°53' E 010°25'0 0.0
2017-Aug-22 21:01N 54°53' E 010°25'0 0.0
2017-Aug-22 20:30N 54°53' E 010°25'0 0.0
2017-Aug-22 20:01N 54°53' E 010°25'0 0.0
2017-Aug-22 19:31N 54°53' E 010°25'0 0.0
2017-Aug-22 19:01N 54°53' E 010°25'0 0.0
2017-Aug-22 18:31N 54°53' E 010°25'0 0.0
2017-Aug-22 18:00N 54°53' E 010°25'0 0.0
2017-Aug-22 17:30N 54°53' E 010°25'0 0.0
2017-Aug-22 17:00N 54°53' E 010°25'0 0.0
2017-Aug-22 16:30N 54°53' E 010°25'0 0.0
2017-Aug-22 16:01N 54°53' E 010°25'0 0.0
2017-Aug-22 15:31N 54°53' E 010°25'0 0.0
2017-Aug-22 15:01N 54°53' E 010°25'0 0.0
2017-Aug-22 14:31N 54°53' E 010°25'0 0.0
2017-Aug-22 14:01N 54°53' E 010°25'1 2.2
2017-Aug-22 13:30N 54°55' E 010°25'1 3.0
2017-Aug-22 13:00N 54°55' E 010°23'2 4.0
2017-Aug-22 12:26N 54°57' E 010°20'2 3.7
2017-Aug-22 11:56N 54°58' E 010°18'1 1.4
2017-Aug-22 11:29N 54°59' E 010°18'0 0.6
2017-Aug-22 10:50N 54°59' E 010°19'3 5.5
2017-Aug-22 10:17N 55°01' E 010°22'1 4.3
2017-Aug-22 10:00N 55°02' E 010°24'3 5.3
2017-Aug-22 09:30N 55°02' E 010°28'2 4.7
2017-Aug-22 09:00N 55°02' E 010°32'1 3.0
2017-Aug-22 08:30N 55°02' E 010°34'2 3.7
2017-Aug-22 08:00N 55°03' E 010°37'0 0.0
2017-Aug-22 07:31N 55°03' E 010°37'0 0.0
2017-Aug-22 07:01N 55°03' E 010°37'0 0.0
2017-Aug-22 06:31N 55°03' E 010°37'0 0.0
2017-Aug-22 06:00N 55°03' E 010°37'0 0.0
2017-Aug-22 05:31N 55°03' E 010°37'0 0.0
2017-Aug-22 05:01N 55°03' E 010°37'0 0.0
2017-Aug-22 04:31N 55°03' E 010°37'0 0.0
2017-Aug-22 04:00N 55°03' E 010°37'0 0.0
2017-Aug-22 03:30N 55°03' E 010°37'0 0.0
2017-Aug-22 03:00N 55°03' E 010°37'0 0.0
2017-Aug-22 02:31N 55°03' E 010°37'0 0.0
2017-Aug-22 02:01N 55°03' E 010°37'0 0.0
2017-Aug-22 01:31N 55°03' E 010°37'0 0.0
2017-Aug-22 01:00N 55°03' E 010°37'0 0.0
2017-Aug-22 00:31N 55°03' E 010°37'0 0.0
2017-Aug-22 00:01N 55°03' E 010°37'0 0.0
2017-Aug-21 23:31N 55°03' E 010°37'0 0.0
2017-Aug-21 23:00N 55°03' E 010°37'0 0.0
2017-Aug-21 22:30N 55°03' E 010°37'0 0.0
2017-Aug-21 22:01N 55°03' E 010°37'0 0.0
2017-Aug-21 21:31N 55°03' E 010°37'0 0.0
2017-Aug-21 21:00N 55°03' E 010°37'0 0.0
2017-Aug-21 20:31N 55°03' E 010°37'0 0.0
2017-Aug-21 20:01N 55°03' E 010°37'0 0.0
2017-Aug-21 19:30N 55°03' E 010°37'0 0.0
2017-Aug-21 19:01N 55°03' E 010°37'0 0.0
2017-Aug-21 18:30N 55°03' E 010°37'0 0.0
2017-Aug-21 18:00N 55°03' E 010°37'0 0.0
2017-Aug-21 17:30N 55°03' E 010°37'0 0.0
2017-Aug-21 17:01N 55°03' E 010°37'0 0.0
2017-Aug-21 16:31N 55°03' E 010°37'0 0.0
2017-Aug-21 16:01N 55°03' E 010°37'0 0.0
2017-Aug-21 15:31N 55°03' E 010°37'0 0.0
2017-Aug-21 15:01N 55°03' E 010°37'0 0.0
2017-Aug-21 14:31N 55°03' E 010°37'0 0.0
2017-Aug-21 14:01N 55°03' E 010°37'0 0.0
2017-Aug-21 13:30N 55°03' E 010°37'0 0.0
2017-Aug-21 13:01N 55°03' E 010°37'0 0.0
2017-Aug-21 12:30N 55°03' E 010°37'2 4.4
2017-Aug-21 12:01N 55°02' E 010°40'2 4.9
2017-Aug-21 11:31N 55°01' E 010°44'3 6.2
2017-Aug-21 11:01N 55°04' E 010°46'3 6.1
2017-Aug-21 10:30N 55°07' E 010°48'3 5.9
2017-Aug-21 10:00N 55°10' E 010°49'3 5.2
2017-Aug-21 09:29N 55°12' E 010°50'3 5.9
2017-Aug-21 09:00N 55°15' E 010°50'2 4.9
2017-Aug-21 08:30N 55°18' E 010°48'1 1.9
2017-Aug-21 07:59N 55°18' E 010°47'0 0.0
2017-Aug-21 07:29N 55°18' E 010°47'0 0.0
2017-Aug-21 06:59N 55°18' E 010°47'0 0.0
2017-Aug-21 06:29N 55°18' E 010°47'0 0.0
2017-Aug-21 05:55N 55°18' E 010°47'0 0.0
2017-Aug-21 05:28N 55°18' E 010°47'0 0.0
2017-Aug-21 04:59N 55°18' E 010°47'0 0.0
2017-Aug-21 04:29N 55°18' E 010°47'0 0.0
2017-Aug-21 04:00N 55°18' E 010°47'0 0.0
2017-Aug-21 03:29N 55°18' E 010°47'0 0.0
2017-Aug-21 02:59N 55°18' E 010°47'0 0.0
2017-Aug-21 02:30N 55°18' E 010°47'0 0.0
2017-Aug-21 02:00N 55°18' E 010°47'0 0.0
2017-Aug-21 01:30N 55°18' E 010°47'0 0.0
2017-Aug-21 01:01N 55°18' E 010°47'0 0.0
2017-Aug-21 00:30N 55°18' E 010°47'0 0.0
2017-Aug-20 23:58N 55°18' E 010°47'0 0.0
2017-Aug-20 23:29N 55°18' E 010°47'0 0.0
2017-Aug-20 23:00N 55°18' E 010°47'0 0.0
2017-Aug-20 22:30N 55°18' E 010°47'0 0.0
2017-Aug-20 21:59N 55°18' E 010°47'0 0.0
2017-Aug-20 21:29N 55°18' E 010°47'0 0.0
2017-Aug-20 21:00N 55°18' E 010°47'0 0.0
2017-Aug-20 20:29N 55°18' E 010°47'0 0.0
2017-Aug-20 20:00N 55°18' E 010°47'0 0.0
2017-Aug-20 19:31N 55°18' E 010°47'0 0.0
2017-Aug-20 19:00N 55°18' E 010°47'0 0.0
2017-Aug-20 18:30N 55°18' E 010°47'0 0.0
2017-Aug-20 17:53N 55°18' E 010°47'0 0.0
2017-Aug-20 15:16N 55°18' E 010°47'1 3.8
2017-Aug-20 15:01N 55°18' E 010°48'3 5.4
2017-Aug-20 14:28N 55°16' E 010°53'3 6.1
2017-Aug-20 14:01N 55°14' E 010°56'4 7.2
2017-Aug-20 13:30N 55°11' E 010°58'3 7.0
2017-Aug-20 13:01N 55°07' E 010°58'4 7.4
2017-Aug-20 12:30N 55°03' E 010°57'4 7.1
2017-Aug-20 12:01N 55°00' E 010°55'3 6.5
2017-Aug-20 11:31N 54°57' E 010°54'3 6.3
2017-Aug-20 11:01N 54°54' E 010°52'4 7.1
2017-Aug-20 10:31N 54°50' E 010°51'4 7.9
2017-Aug-20 10:01N 54°47' E 010°53'3 6.7
2017-Aug-20 09:30N 54°45' E 010°58'3 6.8
2017-Aug-20 09:00N 54°43' E 011°03'3 6.4
2017-Aug-20 08:30N 54°41' E 011°08'3 6.2
2017-Aug-20 08:00N 54°40' E 011°13'3 5.7
2017-Aug-20 07:30N 54°39' E 011°17'2 4.0
2017-Aug-20 07:00N 54°39' E 011°21'0 0.0
2017-Aug-20 06:30N 54°39' E 011°21'0 0.0
2017-Aug-20 06:00N 54°39' E 011°21'0 0.0
2017-Aug-20 05:30N 54°39' E 011°21'0 0.0
2017-Aug-20 05:00N 54°39' E 011°21'0 0.0
2017-Aug-20 04:30N 54°39' E 011°21'0 0.0
2017-Aug-20 04:00N 54°39' E 011°21'0 0.0
2017-Aug-20 03:30N 54°39' E 011°21'0 0.0
2017-Aug-20 03:00N 54°39' E 011°21'0 0.0
2017-Aug-20 02:30N 54°39' E 011°21'0 0.0
2017-Aug-20 02:00N 54°39' E 011°21'0 0.0
2017-Aug-20 01:30N 54°39' E 011°21'0 0.0
2017-Aug-20 01:00N 54°39' E 011°21'0 0.0
2017-Aug-20 00:30N 54°39' E 011°21'0 0.0
2017-Aug-20 00:00N 54°39' E 011°21'0 0.0
2017-Aug-19 23:30N 54°39' E 011°21'0 0.0
2017-Aug-19 23:00N 54°39' E 011°21'0 0.0
2017-Aug-19 22:30N 54°39' E 011°21'0 0.0
2017-Aug-19 22:00N 54°39' E 011°21'0 0.0
2017-Aug-19 21:30N 54°39' E 011°21'0 0.0
2017-Aug-19 21:00N 54°39' E 011°21'0 0.0
2017-Aug-19 20:30N 54°39' E 011°21'0 0.0
2017-Aug-19 20:00N 54°39' E 011°21'0 0.0
2017-Aug-19 19:30N 54°39' E 011°21'0 0.0
2017-Aug-19 19:00N 54°39' E 011°21'0 0.0
2017-Aug-19 18:30N 54°39' E 011°21'0 0.0
2017-Aug-19 18:00N 54°39' E 011°21'0 0.0
2017-Aug-19 17:30N 54°39' E 011°21'0 0.0
2017-Aug-19 17:00N 54°39' E 011°21'1 2.5
2017-Aug-19 16:30N 54°38' E 011°21'3 6.3
2017-Aug-19 16:00N 54°35' E 011°20'3 6.1
2017-Aug-19 15:30N 54°32' E 011°20'3 6.2
2017-Aug-19 15:00N 54°30' E 011°24'7 7.2
2017-Aug-19 14:00N 54°25' E 011°34'3 6.9
2017-Aug-19 13:30N 54°23' E 011°39'3 6.7
2017-Aug-19 13:00N 54°21' E 011°43'3 5.6
2017-Aug-19 12:30N 54°19' E 011°47'8 6.5
2017-Aug-19 11:12N 54°15' E 011°59'2 5.3
2017-Aug-19 10:51N 54°14' E 012°02'2 5.0
2017-Aug-19 10:30N 54°12' E 012°04'7 2.7
2017-Aug-19 07:51N 54°06' E 012°08'0 0.0
2017-Aug-19 07:29N 54°06' E 012°08'0 0.0
2017-Aug-19 06:37N 54°06' E 012°08'0 0.0
2017-Aug-19 06:30N 54°06' E 012°08'0 0.0
2017-Aug-19 05:12N 54°06' E 012°08'0 0.0
2017-Aug-19 04:16N 54°06' E 012°08'0 0.0
2017-Aug-19 04:00N 54°06' E 012°08'0 0.0
2017-Aug-19 01:01N 54°06' E 012°08'0 0.0
2017-Aug-19 01:00N 54°06' E 012°08'0 0.0
2017-Aug-18 23:14N 54°06' E 012°08'0 0.0
2017-Aug-18 22:46N 54°06' E 012°08'0 0.0
2017-Aug-18 22:30N 54°06' E 012°08'0 0.0
2017-Aug-18 22:00N 54°06' E 012°08'0 0.0
2017-Aug-18 21:22N 54°06' E 012°08'0 0.0
2017-Aug-18 19:49N 54°06' E 012°08'0 0.0
2017-Aug-18 19:30N 54°06' E 012°08'0 0.0
2017-Aug-18 18:03N 54°06' E 012°08'0 0.0
2017-Aug-18 17:54N 54°06' E 012°08'0 0.0
2017-Aug-18 17:15N 54°06' E 012°08'0 0.0
2017-Aug-18 16:02N 54°06' E 012°08'0 0.0
2017-Aug-18 16:00N 54°06' E 012°08'0 0.0
2017-Aug-18 15:30N 54°06' E 012°08'0 0.0
2017-Aug-18 14:59N 54°06' E 012°08'0 0.0
2017-Aug-18 13:19N 54°06' E 012°08'0 0.0
2017-Aug-18 12:48N 54°06' E 012°08'0 0.0
2017-Aug-18 12:19N 54°06' E 012°08'0 0.0
2017-Aug-18 11:43N 54°06' E 012°08'0 0.0
2017-Aug-18 11:18N 54°06' E 012°08'0 0.0
2017-Aug-18 10:26N 54°06' E 012°08'0 0.0
2017-Aug-18 09:00N 54°06' E 012°08'3 4.8
2017-Aug-18 08:17N 54°09' E 012°06'2 5.5
2017-Aug-18 08:00N 54°10' E 012°06'0 0.9
2017-Aug-18 07:30N 54°11' E 012°06'0 0.0
2017-Aug-18 06:58N 54°11' E 012°06'0 0.0
2017-Aug-18 06:30N 54°11' E 012°06'0 0.0
2017-Aug-18 05:27N 54°11' E 012°06'0 0.0
2017-Aug-18 04:58N 54°11' E 012°06'0 0.0
2017-Aug-18 04:30N 54°11' E 012°06'0 0.0
2017-Aug-18 04:00N 54°11' E 012°06'0 0.0
2017-Aug-18 03:30N 54°11' E 012°06'0 0.0
2017-Aug-18 01:26N 54°11' E 012°06'0 0.0
2017-Aug-18 00:10N 54°11' E 012°06'0 0.0
2017-Aug-17 23:43N 54°11' E 012°06'0 0.0
2017-Aug-17 23:30N 54°11' E 012°06'0 0.0
2017-Aug-17 22:59N 54°11' E 012°06'0 0.0
2017-Aug-17 21:18N 54°11' E 012°06'0 0.0
2017-Aug-17 18:26N 54°11' E 012°06'0 0.0
2017-Aug-17 18:00N 54°11' E 012°06'0 0.0
2017-Aug-17 17:10N 54°11' E 012°06'0 0.0
2017-Aug-17 16:15N 54°11' E 012°06'0 0.0
2017-Aug-17 14:34N 54°11' E 012°06'0 0.6
2017-Aug-17 14:30N 54°11' E 012°06'1 2.7
2017-Aug-17 14:00N 54°11' E 012°03'3 5.6
2017-Aug-17 13:30N 54°11' E 011°59'4 7.0
2017-Aug-17 12:59N 54°10' E 011°53'5 4.2
2017-Aug-17 11:45N 54°12' E 012°01'1 2.9
2017-Aug-17 11:21N 54°12' E 012°03'3 7.4
2017-Aug-17 10:58N 54°12' E 011°58'2 5.0
2017-Aug-17 10:30N 54°12' E 011°54'1 0.8
2017-Aug-17 09:15N 54°11' E 011°55'2 7.3
2017-Aug-17 09:00N 54°10' E 011°52'3 6.0
2017-Aug-17 08:30N 54°09' E 011°47'1 1.1
2017-Aug-17 08:00N 54°09' E 011°46'0 0.0
2017-Aug-17 06:02N 54°09' E 011°46'0 0.3
2017-Aug-17 06:00N 54°09' E 011°46'0 0.0
2017-Aug-17 05:29N 54°09' E 011°46'0 0.0
2017-Aug-17 04:59N 54°09' E 011°46'0 0.0
2017-Aug-17 04:30N 54°09' E 011°46'0 0.0
2017-Aug-17 04:00N 54°09' E 011°46'0 0.0
2017-Aug-17 03:30N 54°09' E 011°46'0 0.0
2017-Aug-17 03:00N 54°09' E 011°46'0 0.0
2017-Aug-17 02:30N 54°09' E 011°46'0 0.0
2017-Aug-17 02:00N 54°09' E 011°46'0 0.0
2017-Aug-17 01:30N 54°09' E 011°46'0 0.0
2017-Aug-17 01:00N 54°09' E 011°46'0 0.0
2017-Aug-17 00:30N 54°09' E 011°46'0 0.0
2017-Aug-17 00:00N 54°09' E 011°46'0 0.0
2017-Aug-16 23:28N 54°09' E 011°46'0 0.0
2017-Aug-16 22:47N 54°09' E 011°46'0 0.0
2017-Aug-16 22:30N 54°09' E 011°46'0 0.0
2017-Aug-16 22:00N 54°09' E 011°46'0 0.0
2017-Aug-16 21:30N 54°09' E 011°46'0 0.0
2017-Aug-16 20:17N 54°09' E 011°46'0 0.0
2017-Aug-16 20:00N 54°09' E 011°46'0 0.0
2017-Aug-16 19:30N 54°09' E 011°46'0 0.0
2017-Aug-16 19:00N 54°09' E 011°46'0 0.0
2017-Aug-16 18:30N 54°09' E 011°46'0 0.0
2017-Aug-16 17:47N 54°09' E 011°46'0 0.0
2017-Aug-16 17:29N 54°09' E 011°46'0 0.0
2017-Aug-16 16:47N 54°09' E 011°46'0 0.0
2017-Aug-16 16:30N 54°09' E 011°46'0 0.0
2017-Aug-16 16:00N 54°09' E 011°46'0 0.0
2017-Aug-16 15:30N 54°09' E 011°46'0 0.0
2017-Aug-16 14:55N 54°09' E 011°46'0 0.0
2017-Aug-16 14:30N 54°09' E 011°46'0 0.0
2017-Aug-16 14:00N 54°09' E 011°46'1 2.4
2017-Aug-16 13:30N 54°10' E 011°46'9 3.1
2017-Aug-16 10:31N 54°07' E 011°31'0 5.7
2017-Aug-16 10:30N 54°07' E 011°31'3 6.0
2017-Aug-16 10:00N 54°05' E 011°28'3 5.0
2017-Aug-16 09:24N 54°02' E 011°24'2 4.0
2017-Aug-16 09:00N 54°01' E 011°22'2 4.7
2017-Aug-16 08:30N 53°59' E 011°20'3 5.7
2017-Aug-16 08:00N 53°57' E 011°24'3 6.1
2017-Aug-16 07:30N 53°55' E 011°26'1 2.1
2017-Aug-16 07:00N 53°54' E 011°27'0 0.0
2017-Aug-16 06:30N 53°54' E 011°27'0 0.0
2017-Aug-16 06:00N 53°54' E 011°27'0 0.0
2017-Aug-16 05:30N 53°54' E 011°27'0 0.0
2017-Aug-16 05:00N 53°54' E 011°27'0 0.0
2017-Aug-16 04:30N 53°54' E 011°27'0 0.0
2017-Aug-16 04:00N 53°54' E 011°27'0 0.0
2017-Aug-16 03:30N 53°54' E 011°27'0 0.0
2017-Aug-16 03:00N 53°54' E 011°27'0 0.0
2017-Aug-16 02:30N 53°54' E 011°27'0 0.0
2017-Aug-16 02:00N 53°54' E 011°27'0 0.0
2017-Aug-16 01:30N 53°54' E 011°27'0 0.0
2017-Aug-16 01:00N 53°54' E 011°27'0 0.0
2017-Aug-16 00:30N 53°54' E 011°27'0 0.0
2017-Aug-16 00:00N 53°54' E 011°27'0 0.0
2017-Aug-15 23:30N 53°54' E 011°27'0 0.0
2017-Aug-15 23:00N 53°54' E 011°27'0 0.0
2017-Aug-15 22:30N 53°54' E 011°27'0 0.0
2017-Aug-15 22:00N 53°54' E 011°27'0 0.0
2017-Aug-15 21:30N 53°54' E 011°27'0 0.0
2017-Aug-15 21:00N 53°54' E 011°27'0 0.0
2017-Aug-15 20:30N 53°54' E 011°27'0 0.0
2017-Aug-15 20:00N 53°54' E 011°27'0 0.0
2017-Aug-15 19:30N 53°54' E 011°27'0 0.0
2017-Aug-15 19:00N 53°54' E 011°27'0 0.0
2017-Aug-15 18:30N 53°54' E 011°27'0 0.0
2017-Aug-15 18:00N 53°54' E 011°27'0 0.0
2017-Aug-15 17:30N 53°54' E 011°27'0 0.0
2017-Aug-15 17:00N 53°54' E 011°27'0 0.0
2017-Aug-15 16:30N 53°54' E 011°27'2 3.7
2017-Aug-15 16:00N 53°55' E 011°26'3 6.3
2017-Aug-15 15:30N 53°58' E 011°22'3 5.8
2017-Aug-15 15:00N 54°00' E 011°20'3 5.7
2017-Aug-15 14:30N 54°03' E 011°19'3 6.0
2017-Aug-15 14:00N 54°05' E 011°23'4 6.5
2017-Aug-15 13:24N 54°08' E 011°27'7 6.1
2017-Aug-15 12:17N 54°14' E 011°32'2 5.6
2017-Aug-15 12:00N 54°15' E 011°34'3 6.0
2017-Aug-15 11:28N 54°18' E 011°36'3 6.7
2017-Aug-15 11:00N 54°21' E 011°38'3 6.8
2017-Aug-15 10:30N 54°24' E 011°41'3 6.8
2017-Aug-15 10:00N 54°27' E 011°43'5 6.2
2017-Aug-15 09:16N 54°32' E 011°46'2 6.0
2017-Aug-15 08:57N 54°33' E 011°47'2 5.1
2017-Aug-15 08:30N 54°36' E 011°46'3 5.3
2017-Aug-15 08:00N 54°38' E 011°47'2 4.4
2017-Aug-15 07:30N 54°40' E 011°44'0 0.0
2017-Aug-15 07:00N 54°40' E 011°44'0 0.0
2017-Aug-15 06:30N 54°40' E 011°44'0 0.0
2017-Aug-15 06:00N 54°40' E 011°44'0 0.0
2017-Aug-15 05:30N 54°40' E 011°44'0 0.0
2017-Aug-15 05:00N 54°40' E 011°44'0 0.0
2017-Aug-15 04:30N 54°40' E 011°44'0 0.0
2017-Aug-15 04:00N 54°40' E 011°44'0 0.0
2017-Aug-15 03:30N 54°40' E 011°44'0 0.0
2017-Aug-15 03:00N 54°40' E 011°44'0 0.0
2017-Aug-15 02:30N 54°40' E 011°44'0 0.0
2017-Aug-15 02:00N 54°40' E 011°44'0 0.0
2017-Aug-15 01:30N 54°40' E 011°44'0 0.0
2017-Aug-15 01:00N 54°40' E 011°44'0 0.0
2017-Aug-15 00:30N 54°40' E 011°44'0 0.0
2017-Aug-15 00:00N 54°40' E 011°44'0 0.0
2017-Aug-14 23:30N 54°40' E 011°44'0 0.0
2017-Aug-14 23:00N 54°40' E 011°44'0 0.0
2017-Aug-14 22:30N 54°40' E 011°44'0 0.0
2017-Aug-14 22:00N 54°40' E 011°44'0 0.0
2017-Aug-14 21:30N 54°40' E 011°44'0 0.0
2017-Aug-14 20:59N 54°40' E 011°44'0 0.0
2017-Aug-14 20:30N 54°40' E 011°44'0 0.0
2017-Aug-14 20:00N 54°40' E 011°44'0 0.0
2017-Aug-14 19:30N 54°40' E 011°44'0 0.0
2017-Aug-14 19:00N 54°40' E 011°44'0 0.0
2017-Aug-14 18:30N 54°40' E 011°44'0 0.0
2017-Aug-14 18:00N 54°40' E 011°44'0 0.0
2017-Aug-14 17:30N 54°40' E 011°44'1 1.3
2017-Aug-14 16:59N 54°39' E 011°44'2 4.0
2017-Aug-14 16:30N 54°38' E 011°47'3 5.6
2017-Aug-14 16:00N 54°35' E 011°46'3 6.7
2017-Aug-14 15:30N 54°32' E 011°48'4 7.2
2017-Aug-14 15:00N 54°29' E 011°52'5 6.7
2017-Aug-14 14:15N 54°25' E 011°55'2 6.8
2017-Aug-14 13:55N 54°23' E 011°56'3 7.0
2017-Aug-14 13:30N 54°20' E 011°58'9 6.8
2017-Aug-14 12:12N 54°12' E 012°04'1 6.1
2017-Aug-14 11:59N 54°11' E 012°06'3 5.2
2017-Aug-14 11:20N 54°07' E 012°06'2 5.1
2017-Aug-14 10:57N 54°06' E 012°07'0 0.3
2017-Aug-14 09:44N 54°06' E 012°08'0 0.0
2017-Aug-14 08:40N 54°06' E 012°08'0 0.0
2017-Aug-14 08:30N 54°06' E 012°08'0 0.0
2017-Aug-14 07:02N 54°06' E 012°08'0 0.1
2017-Aug-14 07:00N 54°06' E 012°08'0 0.0
2017-Aug-14 06:19N 54°06' E 012°08'0 0.0
2017-Aug-14 05:52N 54°06' E 012°08'0 0.0
2017-Aug-14 04:51N 54°06' E 012°08'0 0.0
2017-Aug-14 04:30N 54°06' E 012°08'0 0.0
2017-Aug-14 04:00N 54°06' E 012°08'0 0.0
2017-Aug-14 03:30N 54°06' E 012°08'0 0.0
2017-Aug-14 02:17N 54°06' E 012°08'0 0.0
2017-Aug-14 02:00N 54°06' E 012°08'0 0.0
2017-Aug-14 01:30N 54°06' E 012°08'0 0.0
2017-Aug-13 23:36N 54°06' E 012°08'0 0.0
2017-Aug-13 23:20N 54°06' E 012°08'0 0.0
2017-Aug-13 23:00N 54°06' E 012°08'0 0.0
2017-Aug-13 22:30N 54°06' E 012°08'0 0.0
2017-Aug-13 19:54N 54°06' E 012°08'0 0.0
2017-Aug-13 19:28N 54°06' E 012°08'0 0.0
2017-Aug-13 18:04N 54°06' E 012°08'0 0.0
2017-Aug-13 17:57N 54°06' E 012°08'0 0.0
2017-Aug-13 16:43N 54°06' E 012°08'0 0.0
2017-Aug-13 16:26N 54°06' E 012°08'0 0.0
2017-Aug-13 15:56N 54°06' E 012°08'0 0.0
2017-Aug-13 14:25N 54°06' E 012°08'0 0.0
2017-Aug-13 13:59N 54°06' E 012°08'0 0.0
2017-Aug-13 13:16N 54°06' E 012°08'2 4.2
2017-Aug-13 12:47N 54°07' E 012°06'2 5.8
2017-Aug-13 12:30N 54°09' E 012°06'2 4.0
2017-Aug-13 12:00N 54°11' E 012°06'2 4.3
2017-Aug-13 11:30N 54°13' E 012°06'1 1.2
2017-Aug-13 10:58N 54°14' E 012°07'3 4.8
2017-Aug-13 10:27N 54°11' E 012°05'2 5.3
2017-Aug-13 10:00N 54°09' E 012°06'3 4.1
2017-Aug-13 09:11N 54°06' E 012°08'0 0.0
2017-Aug-13 08:53N 54°06' E 012°08'0 0.0
2017-Aug-13 08:29N 54°06' E 012°08'0 0.0
2017-Aug-13 07:52N 54°06' E 012°08'0 0.0
2017-Aug-13 07:29N 54°06' E 012°08'0 0.0
2017-Aug-13 07:00N 54°06' E 012°08'0 0.0
2017-Aug-13 05:17N 54°06' E 012°08'0 0.0
2017-Aug-13 05:00N 54°06' E 012°08'0 0.0
2017-Aug-13 04:29N 54°06' E 012°08'0 0.0
2017-Aug-13 04:00N 54°06' E 012°08'0 0.0
2017-Aug-13 03:30N 54°06' E 012°08'0 0.0
2017-Aug-13 01:53N 54°06' E 012°08'0 0.0
2017-Aug-13 01:30N 54°06' E 012°08'0 0.0
2017-Aug-12 22:32N 54°06' E 012°08'0 0.3
2017-Aug-12 22:30N 54°06' E 012°08'  
Track history (hours):
 
Tides and Currents Weather Stations Pressure Air Temp Water Temp Dewpoint Dewpoint Depression Visibility Wind Speed Wind Dir Waves Ship Positions

Oban

Last reported at 2017-Aug-22 22:30 UTC. Time now 2017-Aug-22 22:38 UTC.
Position N 54°53' E 010°25'.

Length 39 m; draft 2.8 m.

Type: Sailing vessel. MMSI: 246085000.

Date/timePositionNaut miles runAvg speedWind from/ knotsBaromVisibWave heightAir tempDewpointWater temp
2017-Aug-22 22:30N 54°53' E 010°25'0 0.0
2017-Aug-22 22:01N 54°53' E 010°25'0 0.0
2017-Aug-22 21:30N 54°53' E 010°25'0 0.0
2017-Aug-22 21:01N 54°53' E 010°25'0 0.0
2017-Aug-22 20:30N 54°53' E 010°25'0 0.0
2017-Aug-22 20:01N 54°53' E 010°25'0 0.0
2017-Aug-22 19:31N 54°53' E 010°25'0 0.0
2017-Aug-22 19:01N 54°53' E 010°25'0 0.0
2017-Aug-22 18:31N 54°53' E 010°25'0 0.0
2017-Aug-22 18:00N 54°53' E 010°25'0 0.0
2017-Aug-22 17:30N 54°53' E 010°25'0 0.0
2017-Aug-22 17:00N 54°53' E 010°25'0 0.0
2017-Aug-22 16:30N 54°53' E 010°25'0 0.0
2017-Aug-22 16:01N 54°53' E 010°25'0 0.0
2017-Aug-22 15:31N 54°53' E 010°25'0 0.0
2017-Aug-22 15:01N 54°53' E 010°25'0 0.0
2017-Aug-22 14:31N 54°53' E 010°25'0 0.0
2017-Aug-22 14:01N 54°53' E 010°25'1 2.2
2017-Aug-22 13:30N 54°55' E 010°25'1 3.0
2017-Aug-22 13:00N 54°55' E 010°23'2 4.0
2017-Aug-22 12:26N 54°57' E 010°20'2 3.7
2017-Aug-22 11:56N 54°58' E 010°18'1 1.4
2017-Aug-22 11:29N 54°59' E 010°18'0 0.6
2017-Aug-22 10:50N 54°59' E 010°19'3 5.5
2017-Aug-22 10:17N 55°01' E 010°22'1 4.3
2017-Aug-22 10:00N 55°02' E 010°24'3 5.3
2017-Aug-22 09:30N 55°02' E 010°28'2 4.7
2017-Aug-22 09:00N 55°02' E 010°32'1 3.0
2017-Aug-22 08:30N 55°02' E 010°34'2 3.7
2017-Aug-22 08:00N 55°03' E 010°37'0 0.0
2017-Aug-22 07:31N 55°03' E 010°37'0 0.0
2017-Aug-22 07:01N 55°03' E 010°37'0 0.0
2017-Aug-22 06:31N 55°03' E 010°37'0 0.0
2017-Aug-22 06:00N 55°03' E 010°37'0 0.0
2017-Aug-22 05:31N 55°03' E 010°37'0 0.0
2017-Aug-22 05:01N 55°03' E 010°37'0 0.0
2017-Aug-22 04:31N 55°03' E 010°37'0 0.0
2017-Aug-22 04:00N 55°03' E 010°37'0 0.0
2017-Aug-22 03:30N 55°03' E 010°37'0 0.0
2017-Aug-22 03:00N 55°03' E 010°37'0 0.0
2017-Aug-22 02:31N 55°03' E 010°37'0 0.0
2017-Aug-22 02:01N 55°03' E 010°37'0 0.0
2017-Aug-22 01:31N 55°03' E 010°37'0 0.0
2017-Aug-22 01:00N 55°03' E 010°37'0 0.0
2017-Aug-22 00:31N 55°03' E 010°37'0 0.0
2017-Aug-22 00:01N 55°03' E 010°37'0 0.0
2017-Aug-21 23:31N 55°03' E 010°37'0 0.0
2017-Aug-21 23:00N 55°03' E 010°37'0 0.0
2017-Aug-21 22:30N 55°03' E 010°37'0 0.0
2017-Aug-21 22:01N 55°03' E 010°37'0 0.0
2017-Aug-21 21:31N 55°03' E 010°37'0 0.0
2017-Aug-21 21:00N 55°03' E 010°37'0 0.0
2017-Aug-21 20:31N 55°03' E 010°37'0 0.0
2017-Aug-21 20:01N 55°03' E 010°37'0 0.0
2017-Aug-21 19:30N 55°03' E 010°37'0 0.0
2017-Aug-21 19:01N 55°03' E 010°37'0 0.0
2017-Aug-21 18:30N 55°03' E 010°37'0 0.0
2017-Aug-21 18:00N 55°03' E 010°37'0 0.0
2017-Aug-21 17:30N 55°03' E 010°37'0 0.0
2017-Aug-21 17:01N 55°03' E 010°37'0 0.0
2017-Aug-21 16:31N 55°03' E 010°37'0 0.0
2017-Aug-21 16:01N 55°03' E 010°37'0 0.0
2017-Aug-21 15:31N 55°03' E 010°37'0 0.0
2017-Aug-21 15:01N 55°03' E 010°37'0 0.0
2017-Aug-21 14:31N 55°03' E 010°37'0 0.0
2017-Aug-21 14:01N 55°03' E 010°37'0 0.0
2017-Aug-21 13:30N 55°03' E 010°37'0 0.0
2017-Aug-21 13:01N 55°03' E 010°37'0 0.0
2017-Aug-21 12:30N 55°03' E 010°37'2 4.4
2017-Aug-21 12:01N 55°02' E 010°40'2 4.9
2017-Aug-21 11:31N 55°01' E 010°44'3 6.2
2017-Aug-21 11:01N 55°04' E 010°46'3 6.1
2017-Aug-21 10:30N 55°07' E 010°48'3 5.9
2017-Aug-21 10:00N 55°10' E 010°49'3 5.2
2017-Aug-21 09:29N 55°12' E 010°50'3 5.9
2017-Aug-21 09:00N 55°15' E 010°50'2 4.9
2017-Aug-21 08:30N 55°18' E 010°48'1 1.9
2017-Aug-21 07:59N 55°18' E 010°47'0 0.0
2017-Aug-21 07:29N 55°18' E 010°47'0 0.0
2017-Aug-21 06:59N 55°18' E 010°47'0 0.0
2017-Aug-21 06:29N 55°18' E 010°47'0 0.0
2017-Aug-21 05:55N 55°18' E 010°47'0 0.0
2017-Aug-21 05:28N 55°18' E 010°47'0 0.0
2017-Aug-21 04:59N 55°18' E 010°47'0 0.0
2017-Aug-21 04:29N 55°18' E 010°47'0 0.0
2017-Aug-21 04:00N 55°18' E 010°47'0 0.0
2017-Aug-21 03:29N 55°18' E 010°47'0 0.0
2017-Aug-21 02:59N 55°18' E 010°47'0 0.0
2017-Aug-21 02:30N 55°18' E 010°47'0 0.0
2017-Aug-21 02:00N 55°18' E 010°47'0 0.0
2017-Aug-21 01:30N 55°18' E 010°47'0 0.0
2017-Aug-21 01:01N 55°18' E 010°47'0 0.0
2017-Aug-21 00:30N 55°18' E 010°47'0 0.0
2017-Aug-20 23:58N 55°18' E 010°47'0 0.0
2017-Aug-20 23:29N 55°18' E 010°47'0 0.0
2017-Aug-20 23:00N 55°18' E 010°47'0 0.0
2017-Aug-20 22:30N 55°18' E 010°47'0 0.0
2017-Aug-20 21:59N 55°18' E 010°47'0 0.0
2017-Aug-20 21:29N 55°18' E 010°47'0 0.0
2017-Aug-20 21:00N 55°18' E 010°47'0 0.0
2017-Aug-20 20:29N 55°18' E 010°47'0 0.0
2017-Aug-20 20:00N 55°18' E 010°47'0 0.0
2017-Aug-20 19:31N 55°18' E 010°47'0 0.0
2017-Aug-20 19:00N 55°18' E 010°47'0 0.0
2017-Aug-20 18:30N 55°18' E 010°47'0 0.0
2017-Aug-20 17:53N 55°18' E 010°47'0 0.0
2017-Aug-20 15:16N 55°18' E 010°47'1 3.8
2017-Aug-20 15:01N 55°18' E 010°48'3 5.4
2017-Aug-20 14:28N 55°16' E 010°53'3 6.1
2017-Aug-20 14:01N 55°14' E 010°56'4 7.2
2017-Aug-20 13:30N 55°11' E 010°58'3 7.0
2017-Aug-20 13:01N 55°07' E 010°58'4 7.4
2017-Aug-20 12:30N 55°03' E 010°57'4 7.1
2017-Aug-20 12:01N 55°00' E 010°55'3 6.5
2017-Aug-20 11:31N 54°57' E 010°54'3 6.3
2017-Aug-20 11:01N 54°54' E 010°52'4 7.1
2017-Aug-20 10:31N 54°50' E 010°51'4 7.9
2017-Aug-20 10:01N 54°47' E 010°53'3 6.7
2017-Aug-20 09:30N 54°45' E 010°58'3 6.8
2017-Aug-20 09:00N 54°43' E 011°03'3 6.4
2017-Aug-20 08:30N 54°41' E 011°08'3 6.2
2017-Aug-20 08:00N 54°40' E 011°13'3 5.7
2017-Aug-20 07:30N 54°39' E 011°17'2 4.0
2017-Aug-20 07:00N 54°39' E 011°21'0 0.0
2017-Aug-20 06:30N 54°39' E 011°21'0 0.0
2017-Aug-20 06:00N 54°39' E 011°21'0 0.0
2017-Aug-20 05:30N 54°39' E 011°21'0 0.0
2017-Aug-20 05:00N 54°39' E 011°21'0 0.0
2017-Aug-20 04:30N 54°39' E 011°21'0 0.0
2017-Aug-20 04:00N 54°39' E 011°21'0 0.0
2017-Aug-20 03:30N 54°39' E 011°21'0 0.0
2017-Aug-20 03:00N 54°39' E 011°21'0 0.0
2017-Aug-20 02:30N 54°39' E 011°21'0 0.0
2017-Aug-20 02:00N 54°39' E 011°21'0 0.0
2017-Aug-20 01:30N 54°39' E 011°21'0 0.0
2017-Aug-20 01:00N 54°39' E 011°21'0 0.0
2017-Aug-20 00:30N 54°39' E 011°21'0 0.0
2017-Aug-20 00:00N 54°39' E 011°21'0 0.0
2017-Aug-19 23:30N 54°39' E 011°21'0 0.0
2017-Aug-19 23:00N 54°39' E 011°21'0 0.0
2017-Aug-19 22:30N 54°39' E 011°21'0 0.0
2017-Aug-19 22:00N 54°39' E 011°21'0 0.0
2017-Aug-19 21:30N 54°39' E 011°21'0 0.0
2017-Aug-19 21:00N 54°39' E 011°21'0 0.0
2017-Aug-19 20:30N 54°39' E 011°21'0 0.0
2017-Aug-19 20:00N 54°39' E 011°21'0 0.0
2017-Aug-19 19:30N 54°39' E 011°21'0 0.0
2017-Aug-19 19:00N 54°39' E 011°21'0 0.0
2017-Aug-19 18:30N 54°39' E 011°21'0 0.0
2017-Aug-19 18:00N 54°39' E 011°21'0 0.0
2017-Aug-19 17:30N 54°39' E 011°21'0 0.0
2017-Aug-19 17:00N 54°39' E 011°21'1 2.5
2017-Aug-19 16:30N 54°38' E 011°21'3 6.3
2017-Aug-19 16:00N 54°35' E 011°20'3 6.1
2017-Aug-19 15:30N 54°32' E 011°20'3 6.2
2017-Aug-19 15:00N 54°30' E 011°24'7 7.2
2017-Aug-19 14:00N 54°25' E 011°34'3 6.9
2017-Aug-19 13:30N 54°23' E 011°39'3 6.7
2017-Aug-19 13:00N 54°21' E 011°43'3 5.6
2017-Aug-19 12:30N 54°19' E 011°47'8 6.5
2017-Aug-19 11:12N 54°15' E 011°59'2 5.3
2017-Aug-19 10:51N 54°14' E 012°02'2 5.0
2017-Aug-19 10:30N 54°12' E 012°04'7 2.7
2017-Aug-19 07:51N 54°06' E 012°08'0 0.0
2017-Aug-19 07:29N 54°06' E 012°08'0 0.0
2017-Aug-19 06:37N 54°06' E 012°08'0 0.0
2017-Aug-19 06:30N 54°06' E 012°08'0 0.0
2017-Aug-19 05:12N 54°06' E 012°08'0 0.0
2017-Aug-19 04:16N 54°06' E 012°08'0 0.0
2017-Aug-19 04:00N 54°06' E 012°08'0 0.0
2017-Aug-19 01:01N 54°06' E 012°08'0 0.0
2017-Aug-19 01:00N 54°06' E 012°08'0 0.0
2017-Aug-18 23:14N 54°06' E 012°08'0 0.0
2017-Aug-18 22:46N 54°06' E 012°08'0 0.0
2017-Aug-18 22:30N 54°06' E 012°08'0 0.0
2017-Aug-18 22:00N 54°06' E 012°08'0 0.0
2017-Aug-18 21:22N 54°06' E 012°08'0 0.0
2017-Aug-18 19:49N 54°06' E 012°08'0 0.0
2017-Aug-18 19:30N 54°06' E 012°08'0 0.0
2017-Aug-18 18:03N 54°06' E 012°08'0 0.0
2017-Aug-18 17:54N 54°06' E 012°08'0 0.0
2017-Aug-18 17:15N 54°06' E 012°08'0 0.0
2017-Aug-18 16:02N 54°06' E 012°08'0 0.0
2017-Aug-18 16:00N 54°06' E 012°08'0 0.0
2017-Aug-18 15:30N 54°06' E 012°08'0 0.0
2017-Aug-18 14:59N 54°06' E 012°08'0 0.0
2017-Aug-18 13:19N 54°06' E 012°08'0 0.0
2017-Aug-18 12:48N 54°06' E 012°08'0 0.0
2017-Aug-18 12:19N 54°06' E 012°08'0 0.0
2017-Aug-18 11:43N 54°06' E 012°08'0 0.0
2017-Aug-18 11:18N 54°06' E 012°08'0 0.0
2017-Aug-18 10:26N 54°06' E 012°08'0 0.0
2017-Aug-18 09:00N 54°06' E 012°08'3 4.8
2017-Aug-18 08:17N 54°09' E 012°06'2 5.5
2017-Aug-18 08:00N 54°10' E 012°06'0 0.9
2017-Aug-18 07:30N 54°11' E 012°06'0 0.0
2017-Aug-18 06:58N 54°11' E 012°06'0 0.0
2017-Aug-18 06:30N 54°11' E 012°06'0 0.0
2017-Aug-18 05:27N 54°11' E 012°06'0 0.0
2017-Aug-18 04:58N 54°11' E 012°06'0 0.0
2017-Aug-18 04:30N 54°11' E 012°06'0 0.0
2017-Aug-18 04:00N 54°11' E 012°06'0 0.0
2017-Aug-18 03:30N 54°11' E 012°06'0 0.0
2017-Aug-18 01:26N 54°11' E 012°06'0 0.0
2017-Aug-18 00:10N 54°11' E 012°06'0 0.0
2017-Aug-17 23:43N 54°11' E 012°06'0 0.0
2017-Aug-17 23:30N 54°11' E 012°06'0 0.0
2017-Aug-17 22:59N 54°11' E 012°06'0 0.0
2017-Aug-17 21:18N 54°11' E 012°06'0 0.0
2017-Aug-17 18:26N 54°11' E 012°06'0 0.0
2017-Aug-17 18:00N 54°11' E 012°06'0 0.0
2017-Aug-17 17:10N 54°11' E 012°06'0 0.0
2017-Aug-17 16:15N 54°11' E 012°06'0 0.0
2017-Aug-17 14:34N 54°11' E 012°06'0 0.6
2017-Aug-17 14:30N 54°11' E 012°06'1 2.7
2017-Aug-17 14:00N 54°11' E 012°03'3 5.6
2017-Aug-17 13:30N 54°11' E 011°59'4 7.0
2017-Aug-17 12:59N 54°10' E 011°53'5 4.2
2017-Aug-17 11:45N 54°12' E 012°01'1 2.9
2017-Aug-17 11:21N 54°12' E 012°03'3 7.4
2017-Aug-17 10:58N 54°12' E 011°58'2 5.0
2017-Aug-17 10:30N 54°12' E 011°54'1 0.8
2017-Aug-17 09:15N 54°11' E 011°55'2 7.3
2017-Aug-17 09:00N 54°10' E 011°52'3 6.0
2017-Aug-17 08:30N 54°09' E 011°47'1 1.1
2017-Aug-17 08:00N 54°09' E 011°46'0 0.0
2017-Aug-17 06:02N 54°09' E 011°46'0 0.3
2017-Aug-17 06:00N 54°09' E 011°46'0 0.0
2017-Aug-17 05:29N 54°09' E 011°46'0 0.0
2017-Aug-17 04:59N 54°09' E 011°46'0 0.0
2017-Aug-17 04:30N 54°09' E 011°46'0 0.0
2017-Aug-17 04:00N 54°09' E 011°46'0 0.0
2017-Aug-17 03:30N 54°09' E 011°46'0 0.0
2017-Aug-17 03:00N 54°09' E 011°46'0 0.0
2017-Aug-17 02:30N 54°09' E 011°46'0 0.0
2017-Aug-17 02:00N 54°09' E 011°46'0 0.0
2017-Aug-17 01:30N 54°09' E 011°46'0 0.0
2017-Aug-17 01:00N 54°09' E 011°46'0 0.0
2017-Aug-17 00:30N 54°09' E 011°46'0 0.0
2017-Aug-17 00:00N 54°09' E 011°46'0 0.0
2017-Aug-16 23:28N 54°09' E 011°46'0 0.0
2017-Aug-16 22:47N 54°09' E 011°46'0 0.0
2017-Aug-16 22:30N 54°09' E 011°46'0 0.0
2017-Aug-16 22:00N 54°09' E 011°46'0 0.0
2017-Aug-16 21:30N 54°09' E 011°46'0 0.0
2017-Aug-16 20:17N 54°09' E 011°46'0 0.0
2017-Aug-16 20:00N 54°09' E 011°46'0 0.0
2017-Aug-16 19:30N 54°09' E 011°46'0 0.0
2017-Aug-16 19:00N 54°09' E 011°46'0 0.0
2017-Aug-16 18:30N 54°09' E 011°46'0 0.0
2017-Aug-16 17:47N 54°09' E 011°46'0 0.0
2017-Aug-16 17:29N 54°09' E 011°46'0 0.0
2017-Aug-16 16:47N 54°09' E 011°46'0 0.0
2017-Aug-16 16:30N 54°09' E 011°46'0 0.0
2017-Aug-16 16:00N 54°09' E 011°46'0 0.0
2017-Aug-16 15:30N 54°09' E 011°46'0 0.0
2017-Aug-16 14:55N 54°09' E 011°46'0 0.0
2017-Aug-16 14:30N 54°09' E 011°46'0 0.0
2017-Aug-16 14:00N 54°09' E 011°46'1 2.4
2017-Aug-16 13:30N 54°10' E 011°46'9 3.1
2017-Aug-16 10:31N 54°07' E 011°31'0 5.7
2017-Aug-16 10:30N 54°07' E 011°31'3 6.0
2017-Aug-16 10:00N 54°05' E 011°28'3 5.0
2017-Aug-16 09:24N 54°02' E 011°24'2 4.0
2017-Aug-16 09:00N 54°01' E 011°22'2 4.7
2017-Aug-16 08:30N 53°59' E 011°20'3 5.7
2017-Aug-16 08:00N 53°57' E 011°24'3 6.1
2017-Aug-16 07:30N 53°55' E 011°26'1 2.1
2017-Aug-16 07:00N 53°54' E 011°27'0 0.0
2017-Aug-16 06:30N 53°54' E 011°27'0 0.0
2017-Aug-16 06:00N 53°54' E 011°27'0 0.0
2017-Aug-16 05:30N 53°54' E 011°27'0 0.0
2017-Aug-16 05:00N 53°54' E 011°27'0 0.0
2017-Aug-16 04:30N 53°54' E 011°27'0 0.0
2017-Aug-16 04:00N 53°54' E 011°27'0 0.0
2017-Aug-16 03:30N 53°54' E 011°27'0 0.0
2017-Aug-16 03:00N 53°54' E 011°27'0 0.0
2017-Aug-16 02:30N 53°54' E 011°27'0 0.0
2017-Aug-16 02:00N 53°54' E 011°27'0 0.0
2017-Aug-16 01:30N 53°54' E 011°27'0 0.0
2017-Aug-16 01:00N 53°54' E 011°27'0 0.0
2017-Aug-16 00:30N 53°54' E 011°27'0 0.0
2017-Aug-16 00:00N 53°54' E 011°27'0 0.0
2017-Aug-15 23:30N 53°54' E 011°27'0 0.0
2017-Aug-15 23:00N 53°54' E 011°27'0 0.0
2017-Aug-15 22:30N 53°54' E 011°27'0 0.0
2017-Aug-15 22:00N 53°54' E 011°27'0 0.0
2017-Aug-15 21:30N 53°54' E 011°27'0 0.0
2017-Aug-15 21:00N 53°54' E 011°27'0 0.0
2017-Aug-15 20:30N 53°54' E 011°27'0 0.0
2017-Aug-15 20:00N 53°54' E 011°27'0 0.0
2017-Aug-15 19:30N 53°54' E 011°27'0 0.0
2017-Aug-15 19:00N 53°54' E 011°27'0 0.0
2017-Aug-15 18:30N 53°54' E 011°27'0 0.0
2017-Aug-15 18:00N 53°54' E 011°27'0 0.0
2017-Aug-15 17:30N 53°54' E 011°27'0 0.0
2017-Aug-15 17:00N 53°54' E 011°27'0 0.0
2017-Aug-15 16:30N 53°54' E 011°27'2 3.7
2017-Aug-15 16:00N 53°55' E 011°26'3 6.3
2017-Aug-15 15:30N 53°58' E 011°22'3 5.8
2017-Aug-15 15:00N 54°00' E 011°20'3 5.7
2017-Aug-15 14:30N 54°03' E 011°19'3 6.0
2017-Aug-15 14:00N 54°05' E 011°23'4 6.5
2017-Aug-15 13:24N 54°08' E 011°27'7 6.1
2017-Aug-15 12:17N 54°14' E 011°32'2 5.6
2017-Aug-15 12:00N 54°15' E 011°34'3 6.0
2017-Aug-15 11:28N 54°18' E 011°36'3 6.7
2017-Aug-15 11:00N 54°21' E 011°38'3 6.8
2017-Aug-15 10:30N 54°24' E 011°41'3 6.8
2017-Aug-15 10:00N 54°27' E 011°43'5 6.2
2017-Aug-15 09:16N 54°32' E 011°46'2 6.0
2017-Aug-15 08:57N 54°33' E 011°47'2 5.1
2017-Aug-15 08:30N 54°36' E 011°46'3 5.3
2017-Aug-15 08:00N 54°38' E 011°47'2 4.4
2017-Aug-15 07:30N 54°40' E 011°44'0 0.0
2017-Aug-15 07:00N 54°40' E 011°44'0 0.0
2017-Aug-15 06:30N 54°40' E 011°44'0 0.0
2017-Aug-15 06:00N 54°40' E 011°44'0 0.0
2017-Aug-15 05:30N 54°40' E 011°44'0 0.0
2017-Aug-15 05:00N 54°40' E 011°44'0 0.0
2017-Aug-15 04:30N 54°40' E 011°44'0 0.0
2017-Aug-15 04:00N 54°40' E 011°44'0 0.0
2017-Aug-15 03:30N 54°40' E 011°44'0 0.0
2017-Aug-15 03:00N 54°40' E 011°44'0 0.0
2017-Aug-15 02:30N 54°40' E 011°44'0 0.0
2017-Aug-15 02:00N 54°40' E 011°44'0 0.0
2017-Aug-15 01:30N 54°40' E 011°44'0 0.0
2017-Aug-15 01:00N 54°40' E 011°44'0 0.0
2017-Aug-15 00:30N 54°40' E 011°44'0 0.0
2017-Aug-15 00:00N 54°40' E 011°44'0 0.0
2017-Aug-14 23:30N 54°40' E 011°44'0 0.0
2017-Aug-14 23:00N 54°40' E 011°44'0 0.0
2017-Aug-14 22:30N 54°40' E 011°44'0 0.0
2017-Aug-14 22:00N 54°40' E 011°44'0 0.0
2017-Aug-14 21:30N 54°40' E 011°44'0 0.0
2017-Aug-14 20:59N 54°40' E 011°44'0 0.0
2017-Aug-14 20:30N 54°40' E 011°44'0 0.0
2017-Aug-14 20:00N 54°40' E 011°44'0 0.0
2017-Aug-14 19:30N 54°40' E 011°44'0 0.0
2017-Aug-14 19:00N 54°40' E 011°44'0 0.0
2017-Aug-14 18:30N 54°40' E 011°44'0 0.0
2017-Aug-14 18:00N 54°40' E 011°44'0 0.0
2017-Aug-14 17:30N 54°40' E 011°44'1 1.3
2017-Aug-14 16:59N 54°39' E 011°44'2 4.0
2017-Aug-14 16:30N 54°38' E 011°47'3 5.6
2017-Aug-14 16:00N 54°35' E 011°46'3 6.7
2017-Aug-14 15:30N 54°32' E 011°48'4 7.2
2017-Aug-14 15:00N 54°29' E 011°52'5 6.7
2017-Aug-14 14:15N 54°25' E 011°55'2 6.8
2017-Aug-14 13:55N 54°23' E 011°56'3 7.0
2017-Aug-14 13:30N 54°20' E 011°58'9 6.8
2017-Aug-14 12:12N 54°12' E 012°04'1 6.1
2017-Aug-14 11:59N 54°11' E 012°06'3 5.2
2017-Aug-14 11:20N 54°07' E 012°06'2 5.1
2017-Aug-14 10:57N 54°06' E 012°07'0 0.3
2017-Aug-14 09:44N 54°06' E 012°08'0 0.0
2017-Aug-14 08:40N 54°06' E 012°08'0 0.0
2017-Aug-14 08:30N 54°06' E 012°08'0 0.0
2017-Aug-14 07:02N 54°06' E 012°08'0 0.1
2017-Aug-14 07:00N 54°06' E 012°08'0 0.0
2017-Aug-14 06:19N 54°06' E 012°08'0 0.0
2017-Aug-14 05:52N 54°06' E 012°08'0 0.0
2017-Aug-14 04:51N 54°06' E 012°08'0 0.0
2017-Aug-14 04:30N 54°06' E 012°08'0 0.0
2017-Aug-14 04:00N 54°06' E 012°08'0 0.0
2017-Aug-14 03:30N 54°06' E 012°08'0 0.0
2017-Aug-14 02:17N 54°06' E 012°08'0 0.0
2017-Aug-14 02:00N 54°06' E 012°08'0 0.0
2017-Aug-14 01:30N 54°06' E 012°08'0 0.0
2017-Aug-13 23:36N 54°06' E 012°08'0 0.0
2017-Aug-13 23:20N 54°06' E 012°08'0 0.0
2017-Aug-13 23:00N 54°06' E 012°08'0 0.0
2017-Aug-13 22:30N 54°06' E 012°08'0 0.0
2017-Aug-13 19:54N 54°06' E 012°08'0 0.0
2017-Aug-13 19:28N 54°06' E 012°08'0 0.0
2017-Aug-13 18:04N 54°06' E 012°08'0 0.0
2017-Aug-13 17:57N 54°06' E 012°08'0 0.0
2017-Aug-13 16:43N 54°06' E 012°08'0 0.0
2017-Aug-13 16:26N 54°06' E 012°08'0 0.0
2017-Aug-13 15:56N 54°06' E 012°08'0 0.0
2017-Aug-13 14:25N 54°06' E 012°08'0 0.0
2017-Aug-13 13:59N 54°06' E 012°08'0 0.0
2017-Aug-13 13:16N 54°06' E 012°08'2 4.2
2017-Aug-13 12:47N 54°07' E 012°06'2 5.8
2017-Aug-13 12:30N 54°09' E 012°06'2 4.0
2017-Aug-13 12:00N 54°11' E 012°06'2 4.3
2017-Aug-13 11:30N 54°13' E 012°06'1 1.2
2017-Aug-13 10:58N 54°14' E 012°07'3 4.8
2017-Aug-13 10:27N 54°11' E 012°05'2 5.3
2017-Aug-13 10:00N 54°09' E 012°06'3 4.1
2017-Aug-13 09:11N 54°06' E 012°08'0 0.0
2017-Aug-13 08:53N 54°06' E 012°08'0 0.0
2017-Aug-13 08:29N 54°06' E 012°08'0 0.0
2017-Aug-13 07:52N 54°06' E 012°08'0 0.0
2017-Aug-13 07:29N 54°06' E 012°08'0 0.0
2017-Aug-13 07:00N 54°06' E 012°08'0 0.0
2017-Aug-13 05:17N 54°06' E 012°08'0 0.0
2017-Aug-13 05:00N 54°06' E 012°08'0 0.0
2017-Aug-13 04:29N 54°06' E 012°08'0 0.0
2017-Aug-13 04:00N 54°06' E 012°08'0 0.0
2017-Aug-13 03:30N 54°06' E 012°08'0 0.0
2017-Aug-13 01:53N 54°06' E 012°08'0 0.0
2017-Aug-13 01:30N 54°06' E 012°08'0 0.0
2017-Aug-12 22:32N 54°06' E 012°08'0 0.3
2017-Aug-12 22:30N 54°06' E 012°08'  

Dump ship's entire track history